Scroll down
FLIGHT INFORMATION
British Airways

BAW159

At Arrival Gate

EGLL
 TXKF
DATE: 2021-07-05
GATE: 564
GATE DEPARTURE: 13:40
TAKEOFF: 13:54
DATE: 2021-07-05
GATE: G3
LANDING: 20:49
GATE ARRIVAL: 20:54
FLIGHT DATA
Crew: 
Speed: 
929 kph
Altitude: 
40,030 ft
Stage Length: 
5,519.5 km
Block Time: 
7.2 hrs
Flight Time: 
6.9 hrs
Fuel Used: 
43,803 kg
Cleared Route: EGLL CPT KENET GAVGO DEZZU DIKAS ABDUK SWANY ASRAX DUFZO MERLY LESLU SOMAX 4920N 4830N 4540N 3950N 3460N LAZEY TXKF
TRACK DATA
50,000 ft 1,000 kts
AIRCRAFT INFO AND CUMULATIVE STATS
Aircraft Type: 
B772
Registration: 
SELCAL: 
GJEQ
MSN/LN: 
29319 / 157
Operator: 
Total Flights: 
8
Total Block Time: 
62.2 hrs
Total Flight Time: 
60.1 hrs
Total Fuel Used: 
370,846 kg
DATALINK LOG | Newest first | Current as of: 2022-09-25 17:33:28
LABEL SEQUENCE CONTENT Dn/Up
5Z56015 JUL 21 20:55:49z / FLT DECK GOOD / ACF POS GOOD / GRND SERVICES GOOD / MAINT GOOD▼ Dn
QD550020:54 37.7▼ Dn
QC495820:49▼ Dn
2U2121TXKF 051955Z 21014KT 9999 FEW015 BKN180 OVC230 28/24 Q1023▲ Up
2S2131TXKF▼ Dn
GA5518GATE G3▲ Up
GR5508TXKF 20:49 HI-VAL NO DIPL/VIP NO▼ Dn
2U4300TXKF 051855Z 20015KT 9999 FEW015 BKN220 OVC250 28/24 Q1023▲ Up
2S4358TXKF▼ Dn
5U4521TXKF 052136Z 20013KT 9999 VCSH FEW012 SCT180 BKN250 29/24 Q1023▲ Up
5S4610TXKF▼ Dn
DM4835064830N 16:34z FL379 4540N 17:35z 3950N M0.83 40.6 -49 307/76 TXKF 20:41z▼ Dn
UM791559CLX 1415 210705 CYQX CLRNCE 113 BAW159 CLEARED TO TXKF VIA LESLU SOMAX 49N020W 48N030W 45N040W 39N050W MNTN F380 M083 GJEQ.▲ Up
UM251559REQUESTING OCEANIC CLRNC CT EGTT CS EP LESLU FL 380 ETA 20:43 SPD M0.83▼ Dn
QB544113:54▼ Dn
QA402913:40 134.4▼ Dn
5Z38275 JUL 21 13:38:25z / FLT DECK GOOD / ACF POS GOOD / GRND SERVICES GOOD / MAINT GOOD▼ Dn
2U2817EGLL 051250Z AUTO 19011KT 9999 SCT041 20/10 Q1005▲ Up
2S2918EGLL▼ Dn
A32624CLEARED TO TXKF VIA CPT3G CPT UL9 DIKAS L180 LESLU SOMAX 49N020W 48N030W 45N040W 39N050W 34N060W LAZEY. SQUAWK 6233.▲ Up
B32615EGLL TXKF BAW159 G-VIIN E ▼ Dn
Q02414[LINK ACK]▲ Up
Q02414[LINK TEST]▼ Dn
Q00446[LINK ACK]▲ Up
Q00446[LINK TEST]▼ Dn


AIRCRAFT HISTORY
FLIGHT DATE FLIGHT NO. ORIGIN DESTINATION CLEARED ROUTE BLOCK TIME FLIGHT TIME FUEL USED PILOT
2022-01-31BAW226KATL EGLL KATL SPA FAK RBV LAURN LLUND BAYYS FOXWD EBONY RIKAL 5350N 5540N 5730N 5720N PIKIL SOVED LUTOV KELLY CASEL PENIL WAL EKLAD MOGTA NANTI NUGRA EGLL7.4 hrs7.2 hrs91,602 lbAnton Vind
2022-01-28BAW227EGLL KATL EGLL GOGSI EVTES EXARO OSNUG ADKIK KOXOD JOZMA SOPTU UNPUP GAPLI SOMAX 4920N 4930N 4940N 4850N NICSO ALLEX ENE BAF BIGGO TRIBS BASYE DBABE LANNA PTW BYRDD HAAGN PENSY EMI CSN MOL FLASK KATL9.7 hrs9.3 hrs123,947 lbAnton Vind
2021-08-23BAW252MYNN EGLL MYNN ZQA INGRA ELBOW ANGLL NUCAR CASPR SCOBY CARPX PERIE OLDEY DIW WETRO CEBEE SWL WARNN ZIZZI YAZUU EMJAY GEDIC RIFLE YAHOO KANNI JOOPY 4950N 5040N 5130N 5120N DINIM ELSOX LINRA LILNO EVRIN NEKAP LAZTU ABDUK NUMPO OKESI HOFIK BEDEK EGLL8.7 hrs8.5 hrs115,869 lbAnton Vind
2021-08-21BAW253EGLL MYNN EGLL CPT KENET UGNUS OKTAD DOBEM TOPRO MEDOG FOXLA ABAPO PEMOB LANPI BAKUR DOGAL 5420N 5330N 5040N 4450N 3760N RNGRS ANTIG EMAKO TASNI GRAMN 2900N07215W GRATX EXTER MAMML ZQA MYNN9 hrs8.8 hrs115,327 lbAnton Vind
2021-07-08BAW158TXKF EGLL TXKF BALOO 4060N JEBBY LOMPI JOOPY 4950N 5040N 5130N 5120N DINIM ELSOX EVRIN NEKAP LAZTU ABDUK NUMPO OKESI HOFIK BEDEK EGLL6.6 hrs6.4 hrs83,150 lbAnton Vind
2021-07-05BAW159EGLL TXKF EGLL CPT KENET GAVGO DEZZU DIKAS ABDUK SWANY ASRAX DUFZO MERLY LESLU SOMAX 4920N 4830N 4540N 3950N 3460N LAZEY TXKF7.2 hrs6.9 hrs96,569 lbAnton Vind
2021-04-21BAW9800HOBBI EGLL OBBI BHR NARMI KFA TAYMA LABLI MEDGO LUGAL SIBLI ANTER BPN ALKIR PASIT NALBU LOSEL HIL REVAB SOBAS NABEK DAXEM RABUG NAGIP KITOT NWB DATOK SERMA GENIV LAKTO TEZAK USEBE OTHON VAXOS FOXLI RDS LARKI URNIL IKARO PIPEN MES NEMIS MOCNA LUPIS GIKAS PEREN MICPO EVIVI EDIKA BAVGA OKANA BEDOX KFT ERKIR KOGOL KPT RAVED HOC NATLI LUL IXILU RESPO RLP ROTSI KOTUN PODUK DIDOR IRBAL NITAR ABNUR DIMAL ALESO EGLL7.2 hrs6.9 hrs102,083 lbChris Makris
2021-04-07BAW9800GEGLL OBBI EGLL D252B D162J EPMNB DET32 DE29A D271E DET DVR KONAN KOK FERDI BUPAL REMBA SPI PELIX MATUG GUBAX BOREP ENITA ETVIS BUDEX SASAL SOGMO BABIT KOTUS NISVA OMENO NIKTI LOPTI KPL ASPIV SUTIS AMALA LMO ERESO RIKSO IMR OKESA AKBUK MILAS YUNUS BANRO RDS NAVOK TIRMO VAXOS VANZA LAKTO GENIV SERMA DATOK TAKSU KARIK ULINA ELETA TAMIM PETRA DEESA BOSAL LABAD NIMAR DEDGI GENON TAMRO NOTLI LOXOM MOGON EMARO DEBOL MAANI GESOR NADEN DASVA OTERA NAGTO RABKA SIBGA LADNA OBBI6.4 hrs6.1 hrs89,029 lbChris Makris